Time;durP1;ratioP1;P1;durP2;ratioP2;P2;SDS_P1;SDS_P2;PMS_P1;PMS_P2;Temp;Humidity;BMP_temperature;BMP_pressure;BME280_temperature;BME280_humidity;BME280_pressure;Samples;Min_cycle;Max_cycle;Signal;HPM_P1;HPM_P2
2021/03/12 00:00:20;;;;;;;3.43;0.60;;;8.40;99.90;;;9.17;53.34;93864.66;5049357;28;20284;-69
2021/03/12 00:02:46;;;;;;;4.07;0.70;;;8.30;99.90;;;8.82;53.15;93872.41;5047981;28;20238;-69
2021/03/12 00:05:13;;;;;;;3.77;0.80;;;8.10;99.90;;;8.37;54.19;93879.94;5055833;28;20180;-68
2021/03/12 00:07:40;;;;;;;1.23;0.50;;;7.70;99.90;;;7.92;53.41;93883.75;5032827;28;20175;-68
2021/03/12 00:10:16;;;;;;;1.60;0.33;;;7.30;99.90;;;7.59;54.02;93899.69;5065916;28;20535;-68
2021/03/12 00:12:42;;;;;;;0.87;0.30;;;7.00;99.90;;;7.37;53.35;93901.53;5066197;28;20254;-69
2021/03/12 00:15:12;;;;;;;2.77;0.30;;;6.90;99.90;;;7.19;53.80;93924.50;5065683;28;20333;-68
2021/03/12 00:17:39;;;;;;;2.37;0.50;;;6.60;99.90;;;7.05;53.96;93930.38;5049809;28;20158;-69
2021/03/12 00:20:21;;;;;;;0.33;0.20;;;6.40;99.90;;;7.00;53.93;93938.19;5032924;28;20294;-68
2021/03/12 00:22:50;;;;;;;2.43;0.40;;;6.30;99.90;;;6.90;54.14;93919.59;5050591;28;20186;-68
2021/03/12 00:25:28;;;;;;;0.77;0.27;;;6.20;99.90;;;6.87;54.30;93934.06;5043780;28;20219;-69
2021/03/12 00:27:54;;;;;;;2.33;0.37;;;6.10;99.90;;;6.84;54.01;93952.19;5046980;28;20179;-69
2021/03/12 00:30:20;;;;;;;1.63;0.30;;;6.10;99.90;;;6.78;54.59;93921.53;5039785;28;20690;-69
2021/03/12 00:32:46;;;;;;;2.37;0.30;;;6.00;99.90;;;6.74;53.90;93952.81;5053671;28;20187;-69
2021/03/12 00:35:13;;;;;;;0.73;0.27;;;5.90;99.90;;;6.70;54.26;93968.28;5035842;28;20600;-69
2021/03/12 00:37:39;;;;;;;1.47;0.30;;;5.90;99.90;;;6.69;54.48;93969.31;5069627;28;20276;-69
2021/03/12 00:40:13;;;;;;;1.43;0.40;;;5.80;99.90;;;6.63;54.18;93978.19;5054473;28;20238;-69
2021/03/12 00:42:40;;;;;;;2.60;0.27;;;5.80;99.90;;;6.65;54.21;93977.94;5054349;28;20175;-69
2021/03/12 00:45:09;;;;;;;1.67;0.20;;;5.80;99.90;;;6.62;54.74;93983.66;5080055;28;20533;-69
2021/03/12 00:47:35;;;;;;;2.73;0.30;;;5.80;99.90;;;6.58;54.76;93972.81;5069378;28;20304;-68
2021/03/12 00:50:03;;;;;;;1.67;0.30;;;5.80;99.90;;;6.58;54.98;93993.09;5069416;28;20191;-69
2021/03/12 00:52:30;;;;;;;1.53;0.40;;;5.80;99.90;;;6.49;55.23;93992.69;5069215;28;20191;-69
2021/03/12 00:54:56;;;;;;;1.93;0.73;;;5.70;99.90;;;6.46;54.68;94000.25;5054037;28;20180;-67
2021/03/12 00:57:22;;;;;;;2.70;0.30;;;5.70;99.90;;;6.46;54.70;94000.25;5053832;28;20609;-68
2021/03/12 00:59:48;;;;;;;2.63;0.37;;;5.70;99.90;;;6.47;54.70;93997.38;5052615;28;20233;-67
2021/03/12 01:02:14;;;;;;;1.07;0.33;;;5.60;99.90;;;6.48;55.32;93998.97;5046025;28;20192;-69
2021/03/12 01:04:43;;;;;;;2.70;0.30;;;5.70;99.90;;;6.50;55.50;94002.19;5052003;28;20198;-69
2021/03/12 01:07:09;;;;;;;2.43;0.43;;;5.70;99.90;;;6.49;55.23;94005.03;5052204;28;20177;-68
2021/03/12 01:09:35;;;;;;;2.87;0.47;;;5.60;99.90;;;6.49;55.23;94005.84;5063988;28;20285;-69
2021/03/12 01:12:01;;;;;;;0.40;0.30;;;5.60;99.90;;;6.46;55.09;94002.88;5046149;28;20207;-71
2021/03/12 01:14:31;;;;;;;0.70;0.20;;;5.60;99.90;;;6.52;55.68;94002.72;5067533;28;20183;-69
2021/03/12 01:16:57;;;;;;;1.97;0.40;;;5.70;99.90;;;6.54;55.77;94002.50;5049565;28;20183;-69
2021/03/12 01:19:23;;;;;;;1.77;0.30;;;5.60;99.90;;;6.54;55.50;94002.50;5055082;28;20234;-69
2021/03/12 01:21:49;;;;;;;2.50;0.47;;;5.70;99.90;;;6.62;56.07;94015.25;5078253;28;20181;-69
2021/03/12 01:24:15;;;;;;;1.70;0.40;;;5.80;99.90;;;6.68;55.39;94003.81;5025534;28;20810;-69
2021/03/12 01:26:44;;;;;;;1.03;0.33;;;5.80;99.90;;;6.71;55.44;94005.97;5051849;28;20183;-69
2021/03/12 01:29:11;;;;;;;1.77;0.73;;;5.80;99.90;;;6.63;55.80;94001.06;5052215;28;20206;-69
2021/03/12 01:31:37;;;;;;;1.47;0.30;;;5.80;99.90;;;6.59;55.77;94005.22;5068624;28;20221;-69
2021/03/12 01:34:05;;;;;;;1.27;0.37;;;5.80;99.90;;;6.53;56.20;93999.06;5085773;28;20199;-69
2021/03/12 01:36:31;;;;;;;0.97;0.17;;;5.70;99.90;;;6.52;55.47;94010.63;5065143;28;20187;-69
2021/03/12 01:38:59;;;;;;;3.07;0.50;;;5.70;99.90;;;6.40;55.95;93998.56;5045517;28;20195;-69
2021/03/12 01:41:25;;;;;;;0.80;0.20;;;5.60;99.90;;;6.37;55.58;94004.31;5034724;28;20325;-69
2021/03/12 01:43:51;;;;;;;0.93;0.30;;;5.50;99.90;;;6.36;56.04;94005.31;5068969;28;20315;-69
2021/03/12 01:46:17;;;;;;;1.03;0.40;;;5.50;99.90;;;6.29;56.12;93999.41;5045900;28;20188;-69
2021/03/12 01:48:45;;;;;;;1.50;0.33;;;5.40;99.90;;;6.23;56.27;94005.59;5052643;28;20242;-69
2021/03/12 01:51:13;;;;;;;2.03;0.50;;;5.40;99.90;;;6.21;56.06;94007.69;5048211;28;20199;-69
2021/03/12 01:53:40;;;;;;;1.77;0.27;;;5.40;99.90;;;6.18;56.34;94007.09;5035323;28;20206;-70
2021/03/12 01:56:07;;;;;;;2.83;0.40;;;5.30;99.90;;;6.16;56.50;94006.56;5068154;28;20538;-69
2021/03/12 01:58:36;;;;;;;1.30;0.30;;;5.40;99.90;;;6.06;56.27;94011.63;5050632;28;20259;-69
2021/03/12 02:01:04;;;;;;;1.60;0.37;;;5.30;99.90;;;6.05;56.71;94017.09;5052928;28;20572;-69
2021/03/12 02:03:33;;;;;;;2.90;0.60;;;5.20;99.90;;;6.04;56.71;94013.66;5051675;28;20178;-68
2021/03/12 02:05:59;;;;;;;1.63;0.30;;;5.20;99.90;;;6.03;56.08;94006.03;5050953;28;20156;-69
2021/03/12 02:08:25;;;;;;;1.13;0.30;;;5.20;99.90;;;6.02;56.51;94001.78;5051065;28;20699;-69
2021/03/12 02:10:52;;;;;;;2.90;0.50;;;5.20;99.90;;;6.00;56.49;94006.50;5050728;28;20202;-69
2021/03/12 02:13:39;;;;;;;3.37;0.60;;;5.10;99.90;;;5.94;56.43;94000.31;5051099;28;20170;-70
2021/03/12 02:16:43;;;;;;;1.83;0.40;;;5.10;99.90;;;5.83;56.71;94000.34;5051628;28;20165;-70
2021/03/12 02:19:18;;;;;;;2.73;0.53;;;5.00;99.90;;;5.71;57.13;93996.94;5044019;28;20264;-69
2021/03/12 02:21:51;;;;;;;1.60;0.30;;;4.90;99.90;;;5.60;56.88;93990.66;5043803;28;20175;-69
2021/03/12 02:24:26;;;;;;;1.00;0.20;;;4.80;99.90;;;5.55;56.77;93980.84;5064744;28;20630;-69
2021/03/12 02:27:00;;;;;;;1.50;0.60;;;4.70;99.90;;;5.48;56.86;93971.47;5047677;28;20270;-69
2021/03/12 02:29:28;;;;;;;2.97;0.40;;;4.70;99.90;;;5.42;56.79;93972.41;5049635;28;20650;-69
2021/03/12 02:31:57;;;;;;;0.70;0.30;;;4.60;99.90;;;5.41;57.00;93960.28;5050938;28;20217;-69
2021/03/12 02:34:27;;;;;;;1.03;0.30;;;4.60;99.90;;;5.37;57.30;93964.44;5050610;28;20728;-69
2021/03/12 02:36:57;;;;;;;1.13;0.30;;;4.50;99.90;;;5.38;57.28;93956.31;5066623;28;20194;-69
2021/03/12 02:39:27;;;;;;;3.43;0.60;;;4.50;99.90;;;5.42;57.23;93952.19;5079962;28;20204;-69
2021/03/12 02:42:01;;;;;;;2.83;0.37;;;4.50;99.90;;;5.39;57.33;93949.22;5076153;28;20217;-69
2021/03/12 02:44:30;;;;;;;0.60;0.30;;;4.50;99.90;;;5.45;57.25;93943.84;5061431;28;20177;-69
2021/03/12 02:47:04;;;;;;;0.50;0.23;;;4.60;99.90;;;5.47;57.21;93947.03;5048096;28;20200;-69
2021/03/12 02:49:31;;;;;;;0.53;0.37;;;4.60;99.90;;;5.47;57.38;93943.63;5080092;28;20186;-69
2021/03/12 02:51:58;;;;;;;0.33;0.20;;;4.60;99.90;;;5.47;57.88;93943.63;5065780;28;20268;-69
2021/03/12 02:54:24;;;;;;;0.33;0.20;;;4.60;99.90;;;5.46;57.56;93940.19;5063667;28;20165;-69
2021/03/12 02:56:51;;;;;;;0.57;0.20;;;4.60;99.90;;;5.52;57.57;93931.38;5029112;28;20200;-69
2021/03/12 02:59:19;;;;;;;1.67;0.40;;;4.60;99.90;;;5.62;57.90;93930.78;5041938;28;20681;-69
2021/03/12 03:01:52;;;;;;;0.90;0.37;;;4.70;99.90;;;5.68;57.12;93935.09;5036912;28;20182;-69
2021/03/12 03:04:18;;;;;;;2.50;0.40;;;4.70;99.90;;;5.73;57.98;93916.00;5048006;28;20192;-69
2021/03/12 03:06:46;;;;;;;2.33;0.50;;;4.80;99.90;;;5.77;57.65;93928.44;5050730;28;20174;-69
2021/03/12 03:09:16;;;;;;;1.67;0.33;;;4.90;99.90;;;5.75;58.03;93917.34;5050287;28;20520;-69
2021/03/12 03:11:42;;;;;;;1.63;0.40;;;4.90;99.90;;;5.73;57.90;93914.16;5049909;28;20175;-69
2021/03/12 03:14:13;;;;;;;1.63;0.30;;;4.80;99.90;;;5.72;58.43;93923.09;5050014;28;20524;-69
2021/03/12 03:16:40;;;;;;;1.13;0.40;;;4.80;99.90;;;5.75;57.69;93921.81;5050218;28;20209;-69
2021/03/12 03:19:09;;;;;;;1.60;0.40;;;4.80;99.90;;;5.79;57.83;93925.56;5033166;28;20198;-69
2021/03/12 03:21:35;;;;;;;1.63;0.33;;;4.90;99.90;;;5.80;58.54;93927.19;5030537;28;20212;-69
2021/03/12 03:24:04;;;;;;;3.17;0.60;;;4.90;99.90;;;5.78;57.93;93918.72;5066536;28;20199;-69
2021/03/12 03:26:30;;;;;;;2.30;0.57;;;4.90;99.90;;;5.73;58.30;93924.69;5048759;28;20694;-69
2021/03/12 03:28:57;;;;;;;1.80;0.37;;;4.80;99.90;;;5.69;58.07;93920.94;5029522;28;20531;-68
2021/03/12 03:31:23;;;;;;;2.10;0.33;;;4.80;99.90;;;5.69;57.72;93939.31;5027467;28;20225;-68
2021/03/12 03:33:49;;;;;;;2.50;0.57;;;4.80;99.90;;;5.78;58.37;93942.38;5013380;28;20651;-69
2021/03/12 03:36:15;;;;;;;1.50;0.40;;;4.80;99.90;;;5.77;58.58;93931.09;5038575;28;20193;-69
2021/03/12 03:38:42;;;;;;;1.73;0.50;;;4.90;99.90;;;5.78;58.02;93930.03;5066216;28;20200;-69
2021/03/12 03:41:17;;;;;;;3.20;0.60;;;4.90;99.90;;;5.79;58.27;93931.63;5049747;28;20182;-69
2021/03/12 03:43:49;;;;;;;2.23;0.50;;;4.90;99.90;;;5.82;58.47;93927.72;5062524;28;20668;-69
2021/03/12 03:46:17;;;;;;;3.73;0.60;;;4.90;99.90;;;5.82;58.58;93927.72;5049059;28;20250;-69
2021/03/12 03:48:46;;;;;;;3.20;0.60;;;4.90;99.90;;;5.73;58.73;93924.69;5063183;28;20612;-69
2021/03/12 03:51:15;;;;;;;3.17;0.50;;;4.90;99.90;;;5.63;58.30;93914.78;5075902;28;20177;-69
2021/03/12 03:53:43;;;;;;;2.83;0.50;;;4.80;99.90;;;5.55;58.61;93911.69;5049634;28;20178;-69
2021/03/12 03:56:15;;;;;;;2.40;0.40;;;4.70;99.90;;;5.47;58.73;93912.09;5049595;28;20182;-69
2021/03/12 03:58:41;;;;;;;1.43;0.60;;;4.60;99.90;;;5.37;58.57;93914.50;5058775;28;20200;-69
2021/03/12 04:01:08;;;;;;;2.60;0.63;;;4.50;99.90;;;5.37;58.90;93928.41;5049182;28;20163;-69
2021/03/12 04:03:37;;;;;;;3.87;0.73;;;4.50;99.90;;;5.35;58.62;93921.81;5050099;28;20174;-69
2021/03/12 04:06:04;;;;;;;1.93;0.67;;;4.50;99.90;;;5.31;58.45;93916.22;5084015;28;20174;-69
2021/03/12 04:08:34;;;;;;;1.80;0.50;;;4.40;99.90;;;5.26;58.64;93920.56;5066285;28;20181;-69
2021/03/12 04:11:03;;;;;;;4.13;0.60;;;4.40;99.90;;;5.23;58.69;93926.28;5033408;28;20865;-69
2021/03/12 04:13:30;;;;;;;1.33;0.50;;;4.40;99.90;;;5.22;58.46;93935.19;5039958;28;20173;-69
2021/03/12 04:15:57;;;;;;;0.73;0.40;;;4.40;99.90;;;5.22;58.67;93937.81;5069861;28;20578;-69
2021/03/12 04:18:25;;;;;;;3.20;0.63;;;4.30;99.90;;;5.14;58.93;93945.03;5054620;28;20259;-69
2021/03/12 04:20:52;;;;;;;3.87;0.63;;;4.20;99.90;;;5.13;58.80;93948.69;5069628;28;20629;-67
2021/03/12 04:23:19;;;;;;;2.33;0.70;;;4.20;99.90;;;5.08;59.12;93940.69;5063096;28;20228;-69
2021/03/12 04:25:46;;;;;;;3.33;0.60;;;4.20;99.90;;;5.07;59.41;93957.47;5085769;28;20187;-68
2021/03/12 04:28:12;;;;;;;3.50;0.80;;;4.20;99.90;;;5.06;59.15;93958.50;5052564;28;20620;-69
2021/03/12 04:30:41;;;;;;;3.17;0.67;;;4.20;99.90;;;5.00;58.82;93962.03;5066558;28;20207;-69
2021/03/12 04:33:09;;;;;;;3.40;0.90;;;4.20;99.90;;;4.97;58.98;93962.50;5052278;28;20197;-69
2021/03/12 04:35:38;;;;;;;2.43;0.50;;;4.00;99.90;;;4.88;59.09;93966.50;5067625;28;20331;-69
2021/03/12 04:38:07;;;;;;;2.33;0.60;;;4.00;99.90;;;4.88;59.51;93971.75;5053133;28;20231;-69
2021/03/12 04:40:32;;;;;;;4.27;0.53;;;4.00;99.90;;;4.89;59.34;93975.97;5068853;28;20193;-69
2021/03/12 04:42:59;;;;;;;3.33;0.50;;;4.00;99.90;;;4.96;59.34;93981.13;5032818;28;20617;-69
2021/03/12 04:45:25;;;;;;;3.13;0.67;;;4.00;99.90;;;4.94;59.43;93986.59;5066443;28;20503;-69
2021/03/12 04:47:56;;;;;;;1.80;0.60;;;4.00;99.90;;;4.93;59.18;93994.72;5049685;28;20210;-69
2021/03/12 04:50:23;;;;;;;2.93;0.60;;;4.00;99.90;;;4.93;59.32;93989.44;5068386;28;20183;-69
2021/03/12 04:52:50;;;;;;;4.47;0.80;;;4.00;99.90;;;4.98;59.22;94010.56;5052643;28;20231;-69
2021/03/12 04:55:16;;;;;;;2.93;0.90;;;4.00;99.90;;;4.89;59.62;93999.59;5054088;28;20176;-69
2021/03/12 04:57:45;;;;;;;4.10;0.67;;;4.00;99.90;;;4.87;59.86;94021.88;5051904;28;20233;-69
2021/03/12 05:00:13;;;;;;;5.17;0.90;;;4.00;99.90;;;4.89;59.63;94020.63;5068557;28;20299;-69
2021/03/12 05:02:40;;;;;;;0.97;0.43;;;4.00;99.90;;;4.87;59.33;94012.16;5054293;28;20196;-69
2021/03/12 05:05:08;;;;;;;3.07;0.50;;;4.00;99.90;;;4.80;59.84;94000.94;5052470;28;20215;-69
2021/03/12 05:07:34;;;;;;;4.30;0.60;;;3.90;99.90;;;4.76;59.63;94014.78;5068816;28;20190;-69
2021/03/12 05:10:05;;;;;;;3.17;0.60;;;3.90;99.90;;;4.71;59.34;94012.81;5070578;28;20189;-69
2021/03/12 05:12:31;;;;;;;3.57;0.73;;;3.80;99.90;;;4.75;59.42;94007.91;5068168;28;20190;-69
2021/03/12 05:14:58;;;;;;;2.67;0.53;;;3.80;99.90;;;4.84;59.69;94012.59;5052824;28;20199;-69
2021/03/12 05:17:25;;;;;;;2.07;0.67;;;3.90;99.90;;;4.86;59.43;94013.19;5051866;28;20216;-68
2021/03/12 05:19:51;;;;;;;1.77;0.50;;;3.90;99.90;;;4.89;59.66;94007.47;5035491;28;20239;-69
2021/03/12 05:22:22;;;;;;;2.00;0.60;;;3.90;99.90;;;4.89;59.83;94001.44;5051495;28;20184;-69
2021/03/12 05:24:48;;;;;;;3.27;0.50;;;4.00;99.90;;;4.90;59.91;94016.16;5052643;28;20197;-69
2021/03/12 05:27:14;;;;;;;3.93;0.63;;;4.00;99.90;;;4.87;59.53;93999.03;5050827;28;20220;-69
2021/03/12 05:29:40;;;;;;;1.93;0.60;;;4.00;99.90;;;4.91;59.85;94007.25;5051554;28;20655;-69
2021/03/12 05:32:06;;;;;;;2.60;0.40;;;4.00;99.90;;;4.87;59.50;94001.66;5068909;28;20221;-69
2021/03/12 05:34:32;;;;;;;3.67;0.47;;;4.00;99.90;;;4.83;59.30;94013.66;5067994;28;20192;-68
2021/03/12 05:36:58;;;;;;;1.73;0.50;;;3.90;99.90;;;4.79;59.75;94014.31;5067867;28;20186;-69
2021/03/12 05:39:24;;;;;;;3.70;0.57;;;3.90;99.90;;;4.81;59.22;94017.50;5034515;28;20205;-68
2021/03/12 05:41:50;;;;;;;4.17;0.80;;;3.90;99.90;;;4.83;59.93;94015.47;5050513;28;20200;-68
2021/03/12 05:44:18;;;;;;;3.13;0.50;;;4.00;99.90;;;4.77;59.90;94011.91;5049796;28;20223;-68
2021/03/12 05:46:45;;;;;;;1.87;0.53;;;3.90;99.90;;;4.79;60.02;94024.81;5049969;28;20716;-68
2021/03/12 05:49:14;;;;;;;3.40;0.50;;;3.90;99.90;;;4.75;60.18;94015.78;5046591;28;20573;-68
2021/03/12 05:51:40;;;;;;;3.33;0.60;;;3.90;99.90;;;4.73;59.55;94013.41;5052213;28;20763;-68
2021/03/12 05:54:07;;;;;;;3.70;0.67;;;3.80;99.90;;;4.69;59.49;94009.63;5047493;28;20272;-68
2021/03/12 05:56:36;;;;;;;2.77;0.50;;;3.80;99.90;;;4.75;59.69;94018.41;5044484;28;20210;-68
2021/03/12 05:59:03;;;;;;;3.50;0.50;;;3.80;99.90;;;4.74;59.74;94028.09;5072863;28;20212;-68
2021/03/12 06:01:33;;;;;;;4.33;0.80;;;3.80;99.90;;;4.73;60.04;94021.28;5063806;28;20229;-68
2021/03/12 06:04:01;;;;;;;4.37;0.60;;;3.80;99.90;;;4.63;59.85;94018.41;5046935;28;20211;-68
2021/03/12 06:06:27;;;;;;;2.47;0.50;;;3.80;99.90;;;4.60;59.61;94024.88;5047989;28;20193;-68
2021/03/12 06:08:55;;;;;;;5.80;1.20;;;3.70;99.90;;;4.67;60.04;94037.91;5033431;28;20270;-69
2021/03/12 06:11:21;;;;;;;4.07;0.60;;;3.80;99.90;;;4.70;59.75;94029.56;5049785;28;20293;-68
2021/03/12 06:13:52;;;;;;;1.87;0.43;;;3.90;99.90;;;4.71;59.85;94041.69;5064367;28;20297;-69
2021/03/12 06:16:28;;;;;;;3.27;0.90;;;3.80;99.90;;;4.78;59.69;94046.84;5051476;28;20169;-68
2021/03/12 06:19:17;;;;;;;2.43;0.70;;;3.80;99.90;;;4.88;59.97;94053.13;5050646;28;20213;-69
2021/03/12 06:21:49;;;;;;;2.63;0.53;;;3.90;99.90;;;4.89;59.91;94046.88;5048601;28;20224;-69
2021/03/12 06:24:44;;;;;;;2.27;0.53;;;4.00;99.90;;;5.00;60.07;94064.44;5046770;28;20208;-69
2021/03/12 06:27:28;;;;;;;3.87;0.53;;;4.10;99.90;;;5.02;59.88;94057.16;5010263;28;20303;-70
2021/03/12 06:30:00;;;;;;;4.33;0.80;;;4.10;99.90;;;5.03;59.76;94061.41;4992205;28;20655;-69
2021/03/12 06:32:47;;;;;;;2.80;0.50;;;4.10;99.90;;;5.13;59.62;94064.28;4988168;28;20206;-69
2021/03/12 06:35:24;;;;;;;4.30;0.70;;;4.20;99.90;;;5.14;59.88;94065.03;4986517;28;20202;-70
2021/03/12 06:37:52;;;;;;;2.37;0.63;;;4.20;99.90;;;5.23;60.09;94066.31;4997952;28;20289;-69
2021/03/12 06:40:21;;;;;;;3.40;1.03;;;4.30;99.90;;;5.32;60.06;94062.31;5005707;28;20213;-70
2021/03/12 06:43:12;;;;;;;3.77;0.83;;;4.40;99.90;;;5.35;60.02;94055.81;5013350;28;20516;-69
2021/03/12 06:45:40;;;;;;;2.77;0.53;;;4.40;99.90;;;5.38;60.22;94065.88;4994296;28;20861;-69
2021/03/12 06:48:29;;;;;;;1.83;0.97;;;4.50;99.90;;;5.49;59.96;94068.50;5006548;28;20180;-69
2021/03/12 06:51:11;;;;;;;4.07;1.00;;;4.60;99.90;;;5.62;59.85;94063.00;4992731;28;20198;-70
2021/03/12 06:53:43;;;;;;;2.50;1.47;;;4.70;99.90;;;5.71;59.86;94065.31;5002292;28;20506;-70
2021/03/12 06:56:13;;;;;;;2.53;0.50;;;4.80;99.90;;;5.75;60.07;94077.75;4999355;28;20211;-72
2021/03/12 06:59:06;;;;;;;1.57;0.40;;;4.80;99.90;;;5.67;59.99;94064.97;5001012;28;20190;-70
2021/03/12 07:01:31;;;;;;;1.47;0.43;;;4.80;99.90;;;5.71;60.12;94070.56;4981806;28;20258;-70
2021/03/12 07:04:15;;;;;;;2.93;0.57;;;4.80;99.90;;;5.60;59.60;94065.09;5018604;28;20657;-70
2021/03/12 07:06:49;;;;;;;2.33;0.60;;;4.80;99.90;;;5.54;59.82;94071.22;5066013;28;20219;-70
2021/03/12 07:09:17;;;;;;;2.33;0.70;;;4.70;99.90;;;5.54;60.15;94070.47;5051717;28;20191;-69
2021/03/12 07:12:02;;;;;;;2.60;0.90;;;4.70;99.90;;;5.61;59.71;94081.63;5068079;28;20190;-69
2021/03/12 07:14:32;;;;;;;4.50;1.60;;;4.70;99.90;;;5.71;59.76;94083.72;5072538;28;20527;-69
2021/03/12 07:17:01;;;;;;;3.17;0.80;;;4.80;99.90;;;5.72;59.64;94074.75;5066166;28;20659;-69
2021/03/12 07:19:27;;;;;;;7.63;2.37;;;4.90;99.90;;;5.77;59.77;94078.31;5031508;28;20199;-70
2021/03/12 07:21:58;;;;;;;8.07;3.50;;;4.90;99.90;;;5.89;59.77;94089.66;5050422;28;20193;-69
2021/03/12 07:24:25;;;;;;;2.47;0.70;;;5.00;99.90;;;5.97;59.81;94084.03;5029196;28;20528;-71
2021/03/12 07:26:59;;;;;;;6.23;1.70;;;5.10;99.90;;;6.18;60.12;94085.25;5063925;28;20187;-70
2021/03/12 07:29:28;;;;;;;3.50;0.53;;;5.30;99.90;;;6.27;59.89;94073.34;5050461;28;20179;-71
2021/03/12 07:31:59;;;;;;;2.80;0.80;;;5.40;99.90;;;6.31;59.88;94079.75;5047082;28;20203;-70
2021/03/12 07:34:30;;;;;;;2.80;0.60;;;5.40;99.90;;;6.40;59.67;94080.16;5048184;28;20206;-71
2021/03/12 07:37:01;;;;;;;3.70;0.90;;;5.50;99.90;;;6.47;59.58;94080.81;5066253;28;20191;-70
2021/03/12 07:39:37;;;;;;;2.60;0.63;;;5.60;99.90;;;6.45;59.85;94082.88;5064352;28;20265;-70
2021/03/12 07:42:04;;;;;;;5.40;0.87;;;5.60;99.90;;;6.29;60.04;94073.09;5040097;28;20190;-71
2021/03/12 07:44:30;;;;;;;4.33;0.70;;;5.50;99.90;;;6.17;59.53;94087.09;5055001;28;20225;-71
2021/03/12 07:46:56;;;;;;;3.33;1.10;;;5.40;99.90;;;6.23;59.86;94074.84;5029143;28;20187;-71
2021/03/12 07:49:42;;;;;;;3.30;0.80;;;5.40;99.90;;;6.36;59.41;94100.06;5065778;28;20202;-71
2021/03/12 07:52:08;;;;;;;3.00;0.90;;;5.50;99.90;;;6.44;60.11;94097.91;5055926;28;20931;-70
2021/03/12 07:54:45;;;;;;;3.23;0.70;;;5.60;99.90;;;6.48;59.33;94093.72;5074643;28;20267;-70
2021/03/12 07:57:40;;;;;;;2.77;0.70;;;5.60;99.90;;;6.60;60.01;94098.97;5052605;28;20221;-70
2021/03/12 08:00:10;;;;;;;3.73;0.63;;;5.70;99.90;;;6.62;59.75;94099.53;5065048;28;20194;-69
2021/03/12 08:02:59;;;;;;;4.97;0.87;;;5.80;99.90;;;6.94;59.89;94102.50;5048341;28;20191;-70
2021/03/12 08:05:40;;;;;;;3.57;1.00;;;6.00;99.90;;;7.08;60.06;94101.97;5048893;28;20168;-70
2021/03/12 08:08:41;;;;;;;4.83;1.10;;;6.20;99.90;;;7.16;60.03;94100.75;5048658;28;20213;-70
2021/03/12 08:11:27;;;;;;;2.70;0.60;;;6.30;99.90;;;7.17;59.45;94107.63;5031248;28;20191;-69
2021/03/12 08:14:16;;;;;;;4.23;0.90;;;6.40;99.90;;;7.40;59.55;94110.13;5052529;28;20174;-71
2021/03/12 08:16:57;;;;;;;3.20;0.70;;;6.50;99.90;;;7.46;59.51;94103.88;5027773;28;20219;-71
2021/03/12 08:19:32;;;;;;;4.37;0.80;;;6.60;99.90;;;7.80;59.46;94115.22;5053175;28;20204;-71
2021/03/12 08:21:59;;;;;;;5.73;1.17;;;6.90;99.90;;;7.97;59.40;94105.44;5030158;28;20200;-72
2021/03/12 08:24:51;;;;;;;2.57;0.60;;;7.20;99.90;;;8.45;60.08;94133.03;5064378;28;20180;-71
2021/03/12 08:27:36;;;;;;;5.17;0.60;;;7.50;99.90;;;8.69;60.27;94111.41;5012832;28;20659;-71
2021/03/12 08:30:08;;;;;;;4.77;0.70;;;7.90;99.90;;;8.91;59.72;94110.56;5053867;28;20271;-71
2021/03/12 08:32:44;;;;;;;4.07;0.73;;;8.10;99.90;;;8.42;60.15;94105.28;5031230;28;20203;-71
2021/03/12 08:35:38;;;;;;;2.30;0.70;;;7.90;99.90;;;8.57;59.58;94107.28;5030693;28;20579;-71
2021/03/12 08:38:10;;;;;;;4.67;0.70;;;7.90;99.90;;;8.22;59.88;94099.72;5025029;28;20196;-72
2021/03/12 08:40:39;;;;;;;5.90;0.70;;;7.70;99.90;;;7.86;59.08;94100.25;5052473;28;20556;-71
2021/03/12 08:43:11;;;;;;;3.67;0.93;;;7.30;99.90;;;7.59;59.52;94111.47;5013575;28;20686;-71
2021/03/12 08:45:55;;;;;;;4.53;0.90;;;7.10;99.90;;;8.42;59.37;94136.16;5030996;28;20217;-72
2021/03/12 08:48:25;;;;;;;2.97;1.00;;;7.40;99.90;;;9.08;59.02;94132.41;5041129;28;20248;-72
2021/03/12 08:51:01;;;;;;;6.77;0.87;;;8.00;99.90;;;10.01;59.40;94131.88;5065359;28;20245;-70
2021/03/12 08:53:33;;;;;;;3.10;0.83;;;9.00;99.90;;;9.76;59.25;94106.06;5062033;28;20190;-69
2021/03/12 08:56:01;;;;;;;4.00;0.80;;;9.10;99.90;;;9.55;59.12;94104.28;5043850;28;20327;-70
2021/03/12 08:58:29;;;;;;;3.63;0.77;;;9.00;99.90;;;9.06;59.05;94090.38;5051701;28;20255;-70
2021/03/12 09:01:08;;;;;;;2.30;0.70;;;8.60;99.90;;;8.85;59.58;94108.91;5052910;28;20574;-70
2021/03/12 09:03:34;;;;;;;2.77;0.90;;;8.30;99.90;;;9.89;59.35;94165.69;5050070;28;20536;-70
2021/03/12 09:06:05;;;;;;;4.23;0.80;;;8.80;99.90;;;12.98;59.31;94199.84;5053807;28;20515;-70
2021/03/12 09:08:33;;;;;;;2.50;0.60;;;11.20;99.90;;;15.85;59.35;94118.22;5036345;28;20539;-71
2021/03/12 09:11:01;;;;;;;2.57;0.80;;;14.20;99.90;;;17.78;59.15;94122.28;5022499;28;20200;-69
2021/03/12 09:13:33;;;;;;;3.97;0.77;;;16.50;96.90;;;17.28;59.36;94022.38;5067127;28;20257;-69
2021/03/12 09:16:02;;;;;;;3.97;0.80;;;17.30;90.50;;;18.03;58.58;94088.69;5031754;28;20250;-69
2021/03/12 09:18:30;;;;;;;3.40;0.83;;;17.80;84.60;;;16.31;58.75;94056.75;5050988;28;20178;-69
2021/03/12 09:21:06;;;;;;;1.63;0.70;;;17.10;83.70;;;14.61;58.38;94009.16;5068046;28;20206;-69
2021/03/12 09:23:36;;;;;;;2.47;0.70;;;15.60;84.20;;;12.79;58.46;94063.19;5046842;28;20180;-69
2021/03/12 09:26:05;;;;;;;2.87;0.80;;;13.80;90.00;;;14.59;58.27;94192.72;5040178;28;20184;-70
2021/03/12 09:28:32;;;;;;;2.67;0.87;;;14.10;91.10;;;17.34;57.88;94170.41;5059587;28;20190;-70
2021/03/12 09:31:01;;;;;;;3.60;0.90;;;16.50;87.90;;;20.05;57.50;94169.09;5066050;28;20303;-70
2021/03/12 09:33:44;;;;;;;1.90;0.80;;;19.20;78.50;;;21.97;57.35;94165.19;5030493;28;20188;-71
2021/03/12 09:36:22;;;;;;;1.57;0.77;;;21.60;68.30;;;23.62;56.98;94152.34;5057738;28;20858;-69
2021/03/12 09:38:50;;;;;;;2.13;0.87;;;23.50;61.70;;;23.93;57.01;94099.19;5059475;28;20277;-69
2021/03/12 09:41:25;;;;;;;2.33;0.80;;;24.40;59.10;;;25.27;56.25;94052.38;5051156;28;20629;-70
2021/03/12 09:44:17;;;;;;;2.40;0.63;;;26.20;53.60;;;24.99;56.06;93998.25;5052264;28;20182;-70
2021/03/12 09:46:55;;;;;;;2.57;0.87;;;26.40;50.90;;;24.94;55.61;94115.94;5053407;28;20824;-70
2021/03/12 09:49:28;;;;;;;2.67;0.77;;;26.20;50.00;;;24.88;55.33;94132.81;5028937;28;20207;-70
2021/03/12 09:52:01;;;;;;;2.57;0.90;;;25.90;51.20;;;24.89;54.68;94059.22;5042890;28;20192;-70
2021/03/12 09:54:31;;;;;;;1.63;0.80;;;25.90;48.80;;;23.92;54.38;94031.81;5070822;28;20195;-70
2021/03/12 09:56:59;;;;;;;2.37;0.60;;;25.20;49.10;;;23.75;53.89;94080.84;5046541;28;20192;-70
2021/03/12 09:59:28;;;;;;;2.40;0.80;;;24.80;51.50;;;25.20;53.76;94092.91;5044980;28;20208;-70
2021/03/12 10:02:07;;;;;;;3.37;0.90;;;25.80;50.60;;;25.40;53.41;94073.63;5064759;28;20214;-70
2021/03/12 10:04:38;;;;;;;2.67;0.63;;;26.90;48.80;;;27.05;53.28;93989.50;5073555;28;20183;-70
2021/03/12 10:07:07;;;;;;;4.87;1.00;;;28.70;46.20;;;27.32;52.47;94031.94;5023109;28;20283;-70
2021/03/12 10:09:39;;;;;;;4.63;1.10;;;29.00;45.30;;;27.51;51.92;94072.69;5041312;28;20766;-70
2021/03/12 10:12:18;;;;;;;2.93;0.80;;;29.20;45.30;;;26.84;51.56;94069.66;5045552;28;20182;-70
2021/03/12 10:14:54;;;;;;;2.77;0.60;;;29.00;43.80;;;26.37;51.53;94056.31;5044808;28;20191;-70
2021/03/12 10:17:27;;;;;;;1.67;0.80;;;27.80;44.50;;;26.19;51.22;94060.63;5043640;28;20179;-70
2021/03/12 10:20:05;;;;;;;2.23;0.77;;;27.60;45.60;;;26.31;50.84;94065.13;5040481;28;20204;-70
2021/03/12 10:22:38;;;;;;;1.80;0.80;;;27.60;44.60;;;27.57;50.02;94097.69;5042390;28;20218;-70
2021/03/12 10:25:09;;;;;;;3.10;0.80;;;28.80;45.30;;;27.09;50.23;94042.84;5044232;28;20585;-70
2021/03/12 10:28:05;;;;;;;2.10;0.77;;;28.50;43.70;;;26.55;49.55;94075.69;5044438;28;20314;-69
2021/03/12 10:30:59;;;;;;;2.83;0.77;;;28.20;44.60;;;23.41;49.02;94015.28;5036277;28;20212;-69
2021/03/12 10:33:30;;;;;;;2.90;0.97;;;24.90;46.40;;;23.03;49.38;93993.25;5025486;28;20647;-69
2021/03/12 10:36:04;;;;;;;3.30;0.70;;;24.50;48.10;;;24.46;48.70;94151.41;5043364;28;20278;-70
2021/03/12 10:38:35;;;;;;;2.20;0.73;;;25.00;50.30;;;24.78;48.25;94030.25;5033000;28;20185;-69
2021/03/12 10:41:19;;;;;;;3.50;0.83;;;25.90;47.60;;;22.74;48.28;94002.38;5039370;28;20234;-70
2021/03/12 10:43:56;;;;;;;2.70;0.90;;;24.50;49.20;;;19.05;48.06;93914.91;5062959;28;20279;-69
2021/03/12 10:46:23;;;;;;;2.63;0.83;;;21.30;52.40;;;16.56;47.87;93951.94;5024485;28;20277;-71